Historique des mesures à Cassis (13260), France
Quotidien Résumé Fevrier 2, 2018 Unités:  Métrique    US   Métrique/US
« Précédent (Jour)
Suivant (Jour) »
Quotidien Hebdomadaire Mensuel Annuel Période au choix
  Maximum: Minimum: Moyenne:
Température: TemperatureC °C 5.6 °C 7.2 °C
Point de rosée: DewpointC °C -2.9 °C -0.8 °C
Humidité: Humidity % 50 % 53 %
Vitesse du vent: 0 km/h 0 km/h 10.5 km/h
Rafales: 0 km/h - -
Vent:- - WSW
Pression: PressurehPa hPa 998.9 hPa -
Précipitations: 0 mm    
Historical Graphs
 
 
Mesures pour : Fevrier 2, 2018
Heure Temperature Point de rosée Pression Vent Vitesse du vent Rafales Humidité Pluie (par heure)
TemperatureC °C DewpointC °C PressurehPa hPa Calm     Humidity % 0 mm
00:12 7.8 °C 0.9 °C 1000.2 hPa NW 10.9 km/h 10.9 km/h 62 % 0 mm
01:12 7.9 °C 0.1 °C 999.5 hPa West 16.9 km/h 17.9 km/h 58 % 0 mm
02:12 7.5 °C -1.0 °C 999.2 hPa WNW 23 km/h 23 km/h 55 % 0 mm
03:12 7.0 °C -1.7 °C 999.2 hPa NNW 6.4 km/h 8 km/h 54 % 0 mm
04:12 5.8 °C -1.2 °C 999.2 hPa NW 7.6 km/h 10.3 km/h 61 % 0 mm
05:12 5.9 °C -1.1 °C 999.2 hPa Calm   3.4 km/h 61 % 0 mm
06:12 5.9 °C -1.3 °C 999.5 hPa West 4.2 km/h 4.2 km/h 60 % 0 mm
07:12 5.6 °C -1.6 °C 999.5 hPa North 6.4 km/h 12.2 km/h 60 % 0 mm
08:12 5.9 °C -1.8 °C 999.2 hPa Calm   14 km/h 58 % 0 mm
09:12 6.4 °C -1.6 °C 999.5 hPa Calm     57 % 0 mm
11:12 7.4 °C -1.6 °C 999.9 hPa North 4.2 km/h 19.2 km/h 53 % 0 mm
12:12 7.9 °C -0.9 °C 1000.2 hPa WSW 20.9 km/h 20.9 km/h 54 % 0 mm
13:12 8.9 °C -0.2 °C 999.2 hPa NNW 14 km/h 24.3 km/h 53 % 0 mm
14:12 8.9 °C 0.3 °C 998.9 hPa NNW 4.7 km/h 6.4 km/h 55 % 0 mm
15:12 9.0 °C 0.9 °C 998.9 hPa NNE 10.3 km/h 25.4 km/h 57 % 0 mm
16:12 9.3 °C 0.9 °C 998.9 hPa West 8.9 km/h 8.9 km/h 56 % 0 mm
17:12 9.1 °C 0.5 °C 998.9 hPa West 9.8 km/h 9.8 km/h 55 % 0 mm
18:12 8.6 °C 0.3 °C 999.2 hPa NNW 12.2 km/h 17.9 km/h 56 % 0 mm
19:12 8.3 °C -0.5 °C 999.2 hPa NW 16.3 km/h 36.5 km/h 54 % 0 mm
20:12 8.3 °C -1.6 °C 999.5 hPa Calm   14 km/h 50 % 0 mm
21:12 7.6 °C -1.9 °C 999.2 hPa WNW 23 km/h 33.6 km/h 51 % 0 mm
22:12 6.9 °C -2.6 °C 998.9 hPa NW 12.2 km/h 12.2 km/h 51 % 0 mm
23:12 6.5 °C -2.9 °C 999.2 hPa WNW 37.5 km/h 37.5 km/h 51 % 0 mm
Observations météo à CASSIS
WU-History script by Weather Underground - 1 mb